Norwegian Jade — C6WK7 — position and weather

sailwx.info

Track history (hours):
 
Tides and Currents Weather Stations Pressure Air Temp Water Temp Dewpoint Dewpoint Depression Visibility Wind Speed Wind Dir Waves Ship Positions

Norwegian Jade

Last reported at 2015-Aug-26 15:28 UTC. Time now 2015-Aug-28 17:13 UTC.
Position N 37°06' E 024°40'.

Length 294 m; draft 8.4 m.

Type: Ship. MMSI: 308416000.

Date/timePositionNaut miles runAvg speedWind from/ knotsBaromVisibWave heightAir tempDewpointWater temp
2015-Aug-26 15:28N 37°06' E 024°40'1819.5
2015-Aug-26 14:33N 37°17' E 024°58'1716.9
2015-Aug-26 13:34N 37°29' E 025°13'5 5.0
2015-Aug-26 12:32N 37°28' E 025°19'0 0.0
2015-Aug-26 11:32N 37°28' E 025°19'0 0.0
2015-Aug-26 10:31N 37°28' E 025°19'0 0.0
2015-Aug-26 09:31N 37°28' E 025°19'0 0.0
2015-Aug-26 08:31N 37°28' E 025°19'0 0.0
2015-Aug-26 07:33N 37°28' E 025°19'0 0.0
2015-Aug-26 06:33N 37°28' E 025°19'0 0.0
2015-Aug-26 05:32N 37°28' E 025°19'0 0.0
2015-Aug-26 04:32N 37°28' E 025°19'0 0.1
2015-Aug-26 03:33N 37°28' E 025°19'8 8.1
2015-Aug-26 02:33N 37°26' E 025°09'1212.0
2015-Aug-26 01:34N 37°16' E 025°02'1212.2
2015-Aug-26 00:33N 37°05' E 024°54'3210.0
2015-Aug-25 21:23N 36°34' E 024°47'2211.9
2015-Aug-25 19:33N 36°29' E 025°13'1010.1
2015-Aug-25 18:32N 36°25' E 025°25'0 0.0
2015-Aug-25 17:33N 36°25' E 025°25'0 0.0
2015-Aug-25 16:32N 36°25' E 025°25'0 0.0
2015-Aug-25 15:33N 36°25' E 025°25'0 0.0
2015-Aug-25 14:33N 36°25' E 025°25'0 0.0
2015-Aug-25 13:31N 36°25' E 025°25'0 0.3
2015-Aug-25 12:32N 36°25' E 025°25'0 0.0
2015-Aug-25 11:33N 36°26' E 025°25'0 0.2
2015-Aug-25 10:32N 36°25' E 025°25'8 7.8
2015-Aug-25 09:33N 36°23' E 025°16'1515.4
2015-Aug-25 08:33N 36°22' E 024°57'1615.6
2015-Aug-25 07:33N 36°21' E 024°37'20916.9
2015-Aug-24 19:10N 37°43' E 020°37'  
2015-Aug-20 01:25N 36°25' E 023°16'1618.9
2015-Aug-20 00:33N 36°30' E 023°35'1918.6
2015-Aug-19 23:33N 36°39' E 023°56'1919.3
2015-Aug-19 22:33N 36°53' E 024°12'2619.2
2015-Aug-19 21:13N 37°06' E 024°40'1318.9
2015-Aug-19 20:34N 37°11' E 024°55'2019.9
2015-Aug-19 19:34N 37°18' E 025°18'2019.8
2015-Aug-19 18:33N 37°26' E 025°41'2019.3
2015-Aug-19 17:32N 37°38' E 026°00'1919.3
2015-Aug-19 16:33N 37°46' E 026°23'2219.2
2015-Aug-19 15:25N 37°51' E 026°49'8 0.6
2015-Aug-19 02:22N 37°53' E 026°40'2914.4
2015-Aug-19 00:23N 37°53' E 026°03'1314.0
2015-Aug-18 23:26N 37°47' E 025°48'1314.5
2015-Aug-18 22:33N 37°40' E 025°35'1514.6
2015-Aug-18 21:33N 37°32' E 025°19'1313.4
2015-Aug-18 20:34N 37°29' E 025°03'1512.6
2015-Aug-18 19:23N 37°33' E 024°45'2913.4
2015-Aug-18 17:14N 37°31' E 024°09'1014.7
2015-Aug-18 16:33N 37°34' E 023°57'1414.0
2015-Aug-18 15:33N 37°41' E 023°42'1413.9
2015-Aug-18 14:34N 37°54' E 023°37'2 2.3
2015-Aug-18 13:32N 37°56' E 023°38'0 0.0
2015-Aug-18 12:32N 37°56' E 023°38'0 0.0
2015-Aug-18 11:31N 37°56' E 023°38'0 0.0
2015-Aug-18 10:32N 37°56' E 023°38'0 0.0
2015-Aug-18 09:31N 37°56' E 023°38'0 0.0
2015-Aug-18 08:31N 37°56' E 023°38'0 0.0
2015-Aug-18 07:31N 37°56' E 023°38'0 0.0
2015-Aug-18 06:08N 37°56' E 023°38'0 0.0
2015-Aug-18 05:32N 37°56' E 023°38'0 0.0
2015-Aug-18 04:31N 37°56' E 023°38'0 0.0
2015-Aug-18 04:10N 37°56' E 023°38'0 0.0
2015-Aug-18 04:07N 37°56' E 023°38'0 0.0
2015-Aug-18 03:31N 37°56' E 023°38'0 0.0
2015-Aug-18 02:33N 37°56' E 023°38'6 6.1
2015-Aug-18 01:33N 37°50' E 023°39'1716.7
2015-Aug-18 00:33N 37°34' E 023°45'1818.2
2015-Aug-17 23:33N 37°16' E 023°41'1818.4
2015-Aug-17 22:33N 36°58' E 023°36'1918.5
2015-Aug-17 21:32N 36°41' E 023°26'1918.9
2015-Aug-17 20:33N 36°25' E 023°15'39018.2
2015-Aug-16 23:11N 41°44' E 018°25'1320.5
2015-Aug-16 22:33N 41°56' E 018°19'  
Track history (hours):
 
Tides and Currents Weather Stations Pressure Air Temp Water Temp Dewpoint Dewpoint Depression Visibility Wind Speed Wind Dir Waves Ship Positions

Norwegian Jade

Last reported at 2015-Aug-26 15:28 UTC. Time now 2015-Aug-28 17:13 UTC.
Position N 37°06' E 024°40'.

Length 294 m; draft 8.4 m.

Type: Ship. MMSI: 308416000.

Date/timePositionNaut miles runAvg speedWind from/ knotsBaromVisibWave heightAir tempDewpointWater temp
2015-Aug-26 15:28N 37°06' E 024°40'1819.5
2015-Aug-26 14:33N 37°17' E 024°58'1716.9
2015-Aug-26 13:34N 37°29' E 025°13'5 5.0
2015-Aug-26 12:32N 37°28' E 025°19'0 0.0
2015-Aug-26 11:32N 37°28' E 025°19'0 0.0
2015-Aug-26 10:31N 37°28' E 025°19'0 0.0
2015-Aug-26 09:31N 37°28' E 025°19'0 0.0
2015-Aug-26 08:31N 37°28' E 025°19'0 0.0
2015-Aug-26 07:33N 37°28' E 025°19'0 0.0
2015-Aug-26 06:33N 37°28' E 025°19'0 0.0
2015-Aug-26 05:32N 37°28' E 025°19'0 0.0
2015-Aug-26 04:32N 37°28' E 025°19'0 0.1
2015-Aug-26 03:33N 37°28' E 025°19'8 8.1
2015-Aug-26 02:33N 37°26' E 025°09'1212.0
2015-Aug-26 01:34N 37°16' E 025°02'1212.2
2015-Aug-26 00:33N 37°05' E 024°54'3210.0
2015-Aug-25 21:23N 36°34' E 024°47'2211.9
2015-Aug-25 19:33N 36°29' E 025°13'1010.1
2015-Aug-25 18:32N 36°25' E 025°25'0 0.0
2015-Aug-25 17:33N 36°25' E 025°25'0 0.0
2015-Aug-25 16:32N 36°25' E 025°25'0 0.0
2015-Aug-25 15:33N 36°25' E 025°25'0 0.0
2015-Aug-25 14:33N 36°25' E 025°25'0 0.0
2015-Aug-25 13:31N 36°25' E 025°25'0 0.3
2015-Aug-25 12:32N 36°25' E 025°25'0 0.0
2015-Aug-25 11:33N 36°26' E 025°25'0 0.2
2015-Aug-25 10:32N 36°25' E 025°25'8 7.8
2015-Aug-25 09:33N 36°23' E 025°16'1515.4
2015-Aug-25 08:33N 36°22' E 024°57'1615.6
2015-Aug-25 07:33N 36°21' E 024°37'20916.9
2015-Aug-24 19:10N 37°43' E 020°37'  
2015-Aug-20 01:25N 36°25' E 023°16'1618.9
2015-Aug-20 00:33N 36°30' E 023°35'1918.6
2015-Aug-19 23:33N 36°39' E 023°56'1919.3
2015-Aug-19 22:33N 36°53' E 024°12'2619.2
2015-Aug-19 21:13N 37°06' E 024°40'1318.9
2015-Aug-19 20:34N 37°11' E 024°55'2019.9
2015-Aug-19 19:34N 37°18' E 025°18'2019.8
2015-Aug-19 18:33N 37°26' E 025°41'2019.3
2015-Aug-19 17:32N 37°38' E 026°00'1919.3
2015-Aug-19 16:33N 37°46' E 026°23'2219.2
2015-Aug-19 15:25N 37°51' E 026°49'8 0.6
2015-Aug-19 02:22N 37°53' E 026°40'2914.4
2015-Aug-19 00:23N 37°53' E 026°03'1314.0
2015-Aug-18 23:26N 37°47' E 025°48'1314.5
2015-Aug-18 22:33N 37°40' E 025°35'1514.6
2015-Aug-18 21:33N 37°32' E 025°19'1313.4
2015-Aug-18 20:34N 37°29' E 025°03'1512.6
2015-Aug-18 19:23N 37°33' E 024°45'2913.4
2015-Aug-18 17:14N 37°31' E 024°09'1014.7
2015-Aug-18 16:33N 37°34' E 023°57'1414.0
2015-Aug-18 15:33N 37°41' E 023°42'1413.9
2015-Aug-18 14:34N 37°54' E 023°37'2 2.3
2015-Aug-18 13:32N 37°56' E 023°38'0 0.0
2015-Aug-18 12:32N 37°56' E 023°38'0 0.0
2015-Aug-18 11:31N 37°56' E 023°38'0 0.0
2015-Aug-18 10:32N 37°56' E 023°38'0 0.0
2015-Aug-18 09:31N 37°56' E 023°38'0 0.0
2015-Aug-18 08:31N 37°56' E 023°38'0 0.0
2015-Aug-18 07:31N 37°56' E 023°38'0 0.0
2015-Aug-18 06:08N 37°56' E 023°38'0 0.0
2015-Aug-18 05:32N 37°56' E 023°38'0 0.0
2015-Aug-18 04:31N 37°56' E 023°38'0 0.0
2015-Aug-18 04:10N 37°56' E 023°38'0 0.0
2015-Aug-18 04:07N 37°56' E 023°38'0 0.0
2015-Aug-18 03:31N 37°56' E 023°38'0 0.0
2015-Aug-18 02:33N 37°56' E 023°38'6 6.1
2015-Aug-18 01:33N 37°50' E 023°39'1716.7
2015-Aug-18 00:33N 37°34' E 023°45'1818.2
2015-Aug-17 23:33N 37°16' E 023°41'1818.4
2015-Aug-17 22:33N 36°58' E 023°36'1918.5
2015-Aug-17 21:32N 36°41' E 023°26'1918.9
2015-Aug-17 20:33N 36°25' E 023°15'39018.2
2015-Aug-16 23:11N 41°44' E 018°25'1320.5
2015-Aug-16 22:33N 41°56' E 018°19'  

Dump ship's entire track history